sensor_id;sensor_type;location;lat;lon;timestamp;temperature;humidity
3418;DHT22;68007;51.312;12.372;2023-03-12T00:00:25;1.40;99.90
3418;DHT22;68007;51.312;12.372;2023-03-12T00:02:54;1.40;99.40
3418;DHT22;68007;51.312;12.372;2023-03-12T00:05:21;1.50;99.90
3418;DHT22;68007;51.312;12.372;2023-03-12T00:07:51;1.20;98.70
3418;DHT22;68007;51.312;12.372;2023-03-12T00:10:19;1.40;99.90
3418;DHT22;68007;51.312;12.372;2023-03-12T00:12:46;1.40;98.70
3418;DHT22;68007;51.312;12.372;2023-03-12T00:15:14;1.40;99.90
3418;DHT22;68007;51.312;12.372;2023-03-12T00:17:42;1.40;98.50
3418;DHT22;68007;51.312;12.372;2023-03-12T00:20:11;1.40;99.80
3418;DHT22;68007;51.312;12.372;2023-03-12T00:22:38;1.40;99.50
3418;DHT22;68007;51.312;12.372;2023-03-12T00:25:09;1.40;98.80
3418;DHT22;68007;51.312;12.372;2023-03-12T00:27:37;1.40;99.00
3418;DHT22;68007;51.312;12.372;2023-03-12T00:30:06;1.40;98.40
3418;DHT22;68007;51.312;12.372;2023-03-12T00:32:34;1.30;98.30
3418;DHT22;68007;51.312;12.372;2023-03-12T00:35:04;1.40;99.90
3418;DHT22;68007;51.312;12.372;2023-03-12T00:37:32;1.40;99.40
3418;DHT22;68007;51.312;12.372;2023-03-12T00:39:59;1.50;99.90
3418;DHT22;68007;51.312;12.372;2023-03-12T00:42:27;1.50;99.90
3418;DHT22;68007;51.312;12.372;2023-03-12T00:44:55;1.40;98.70
3418;DHT22;68007;51.312;12.372;2023-03-12T00:47:22;1.50;99.80
3418;DHT22;68007;51.312;12.372;2023-03-12T00:49:50;1.50;99.40
3418;DHT22;68007;51.312;12.372;2023-03-12T00:52:19;1.50;99.60
3418;DHT22;68007;51.312;12.372;2023-03-12T00:54:46;1.50;99.90
3418;DHT22;68007;51.312;12.372;2023-03-12T00:57:14;1.50;99.90
3418;DHT22;68007;51.312;12.372;2023-03-12T00:59:41;1.50;99.10
3418;DHT22;68007;51.312;12.372;2023-03-12T01:02:09;1.40;98.80
3418;DHT22;68007;51.312;12.372;2023-03-12T01:04:36;1.50;99.70
3418;DHT22;68007;51.312;12.372;2023-03-12T01:07:04;1.50;99.80
3418;DHT22;68007;51.312;12.372;2023-03-12T01:09:33;1.50;98.60
3418;DHT22;68007;51.312;12.372;2023-03-12T01:12:00;1.50;99.30
3418;DHT22;68007;51.312;12.372;2023-03-12T01:14:28;1.40;99.10
3418;DHT22;68007;51.312;12.372;2023-03-12T01:16:55;1.50;99.70
3418;DHT22;68007;51.312;12.372;2023-03-12T01:19:23;1.50;99.90
3418;DHT22;68007;51.312;12.372;2023-03-12T01:21:50;1.50;99.70
3418;DHT22;68007;51.312;12.372;2023-03-12T01:24:18;1.50;99.60
3418;DHT22;68007;51.312;12.372;2023-03-12T01:26:46;1.50;99.70
3418;DHT22;68007;51.312;12.372;2023-03-12T01:29:14;1.60;99.50
3418;DHT22;68007;51.312;12.372;2023-03-12T01:31:41;1.50;98.90
3418;DHT22;68007;51.312;12.372;2023-03-12T01:34:10;1.50;98.60
3418;DHT22;68007;51.312;12.372;2023-03-12T01:36:38;1.50;98.90
3418;DHT22;68007;51.312;12.372;2023-03-12T01:39:05;1.50;98.90
3418;DHT22;68007;51.312;12.372;2023-03-12T01:41:33;1.50;99.50
3418;DHT22;68007;51.312;12.372;2023-03-12T01:44:02;1.50;98.70
3418;DHT22;68007;51.312;12.372;2023-03-12T01:46:31;1.50;98.80
3418;DHT22;68007;51.312;12.372;2023-03-12T01:49:04;1.50;99.40
3418;DHT22;68007;51.312;12.372;2023-03-12T01:51:36;1.50;99.30
3418;DHT22;68007;51.312;12.372;2023-03-12T01:54:08;1.50;99.80
3418;DHT22;68007;51.312;12.372;2023-03-12T01:56:37;1.50;99.40
3418;DHT22;68007;51.312;12.372;2023-03-12T01:59:11;1.50;99.10
3418;DHT22;68007;51.312;12.372;2023-03-12T02:01:41;1.40;98.80
3418;DHT22;68007;51.312;12.372;2023-03-12T02:04:09;1.30;97.60
3418;DHT22;68007;51.312;12.372;2023-03-12T02:06:41;1.30;98.40
3418;DHT22;68007;51.312;12.372;2023-03-12T02:09:10;1.10;97.40
3418;DHT22;68007;51.312;12.372;2023-03-12T02:11:39;1.00;96.80
3418;DHT22;68007;51.312;12.372;2023-03-12T02:14:08;1.00;98.20
3418;DHT22;68007;51.312;12.372;2023-03-12T02:16:35;1.10;98.60
3418;DHT22;68007;51.312;12.372;2023-03-12T02:19:15;1.00;98.30
3418;DHT22;68007;51.312;12.372;2023-03-12T02:21:43;1.10;99.80
3418;DHT22;68007;51.312;12.372;2023-03-12T02:24:16;1.10;98.90
3418;DHT22;68007;51.312;12.372;2023-03-12T02:26:46;1.10;99.30
3418;DHT22;68007;51.312;12.372;2023-03-12T02:29:15;1.10;98.20
3418;DHT22;68007;51.312;12.372;2023-03-12T02:31:46;1.10;99.30
3418;DHT22;68007;51.312;12.372;2023-03-12T02:34:14;1.10;99.20
3418;DHT22;68007;51.312;12.372;2023-03-12T02:36:42;1.20;99.90
3418;DHT22;68007;51.312;12.372;2023-03-12T02:39:11;1.20;99.20
3418;DHT22;68007;51.312;12.372;2023-03-12T02:41:41;1.20;98.90
3418;DHT22;68007;51.312;12.372;2023-03-12T02:44:14;1.20;99.30
3418;DHT22;68007;51.312;12.372;2023-03-12T02:46:45;1.20;99.40
3418;DHT22;68007;51.312;12.372;2023-03-12T02:49:17;1.20;98.30
3418;DHT22;68007;51.312;12.372;2023-03-12T02:51:45;1.10;97.20
3418;DHT22;68007;51.312;12.372;2023-03-12T02:54:14;1.00;97.20
3418;DHT22;68007;51.312;12.372;2023-03-12T02:56:42;1.00;97.60
3418;DHT22;68007;51.312;12.372;2023-03-12T02:59:12;0.80;97.50
3418;DHT22;68007;51.312;12.372;2023-03-12T03:01:41;0.90;99.10
3418;DHT22;68007;51.312;12.372;2023-03-12T03:04:09;1.00;99.20
3418;DHT22;68007;51.312;12.372;2023-03-12T03:06:39;1.00;99.00
3418;DHT22;68007;51.312;12.372;2023-03-12T03:09:07;0.90;98.30
3418;DHT22;68007;51.312;12.372;2023-03-12T03:11:35;0.90;99.00
3418;DHT22;68007;51.312;12.372;2023-03-12T03:14:03;0.90;99.40
3418;DHT22;68007;51.312;12.372;2023-03-12T03:16:33;1.00;99.60
3418;DHT22;68007;51.312;12.372;2023-03-12T03:19:01;1.00;99.90
3418;DHT22;68007;51.312;12.372;2023-03-12T03:21:29;1.00;99.10
3418;DHT22;68007;51.312;12.372;2023-03-12T03:23:56;1.00;99.90
3418;DHT22;68007;51.312;12.372;2023-03-12T03:26:24;1.10;99.90
3418;DHT22;68007;51.312;12.372;2023-03-12T03:28:52;1.10;99.90
3418;DHT22;68007;51.312;12.372;2023-03-12T03:31:20;1.00;99.10
3418;DHT22;68007;51.312;12.372;2023-03-12T03:33:49;1.00;99.50
3418;DHT22;68007;51.312;12.372;2023-03-12T03:36:16;1.00;99.60
3418;DHT22;68007;51.312;12.372;2023-03-12T03:38:44;0.90;98.90
3418;DHT22;68007;51.312;12.372;2023-03-12T03:41:15;0.80;98.00
3418;DHT22;68007;51.312;12.372;2023-03-12T03:43:42;0.60;98.00
3418;DHT22;68007;51.312;12.372;2023-03-12T03:46:11;0.70;99.90
3418;DHT22;68007;51.312;12.372;2023-03-12T03:48:39;0.80;99.90
3418;DHT22;68007;51.312;12.372;2023-03-12T03:51:09;0.80;99.90
3418;DHT22;68007;51.312;12.372;2023-03-12T03:53:37;0.90;99.90
3418;DHT22;68007;51.312;12.372;2023-03-12T03:56:06;0.90;99.90
3418;DHT22;68007;51.312;12.372;2023-03-12T03:58:34;0.90;99.90
3418;DHT22;68007;51.312;12.372;2023-03-12T04:01:01;0.90;99.60
3418;DHT22;68007;51.312;12.372;2023-03-12T04:03:29;0.90;99.50
3418;DHT22;68007;51.312;12.372;2023-03-12T04:05:59;0.80;98.40
3418;DHT22;68007;51.312;12.372;2023-03-12T04:08:28;0.70;98.70
3418;DHT22;68007;51.312;12.372;2023-03-12T04:10:56;0.70;98.90
3418;DHT22;68007;51.312;12.372;2023-03-12T04:13:23;0.70;98.60
3418;DHT22;68007;51.312;12.372;2023-03-12T04:15:52;0.70;98.60
3418;DHT22;68007;51.312;12.372;2023-03-12T04:18:19;0.60;98.30
3418;DHT22;68007;51.312;12.372;2023-03-12T04:20:47;0.60;98.10
3418;DHT22;68007;51.312;12.372;2023-03-12T04:23:15;0.50;98.50
3418;DHT22;68007;51.312;12.372;2023-03-12T04:25:43;0.30;98.00
3418;DHT22;68007;51.312;12.372;2023-03-12T04:28:11;0.30;98.20
3418;DHT22;68007;51.312;12.372;2023-03-12T04:30:38;0.20;98.40
3418;DHT22;68007;51.312;12.372;2023-03-12T04:33:06;0.20;98.50
3418;DHT22;68007;51.312;12.372;2023-03-12T04:35:34;0.40;99.70
3418;DHT22;68007;51.312;12.372;2023-03-12T04:38:02;0.20;98.10
3418;DHT22;68007;51.312;12.372;2023-03-12T04:40:29;0.30;99.40
3418;DHT22;68007;51.312;12.372;2023-03-12T04:42:58;0.40;99.70
3418;DHT22;68007;51.312;12.372;2023-03-12T04:45:26;0.40;99.20
3418;DHT22;68007;51.312;12.372;2023-03-12T04:47:53;0.50;99.40
3418;DHT22;68007;51.312;12.372;2023-03-12T04:50:21;0.50;99.70
3418;DHT22;68007;51.312;12.372;2023-03-12T04:52:48;0.50;99.40
3418;DHT22;68007;51.312;12.372;2023-03-12T04:55:16;0.50;99.80
3418;DHT22;68007;51.312;12.372;2023-03-12T04:57:43;0.60;99.90
3418;DHT22;68007;51.312;12.372;2023-03-12T05:00:13;0.60;99.90
3418;DHT22;68007;51.312;12.372;2023-03-12T05:02:41;0.60;99.90
3418;DHT22;68007;51.312;12.372;2023-03-12T05:05:10;0.60;99.90
3418;DHT22;68007;51.312;12.372;2023-03-12T05:07:38;0.60;99.90
3418;DHT22;68007;51.312;12.372;2023-03-12T05:10:06;0.60;99.60
3418;DHT22;68007;51.312;12.372;2023-03-12T05:12:33;0.60;99.60
3418;DHT22;68007;51.312;12.372;2023-03-12T05:15:01;0.60;99.70
3418;DHT22;68007;51.312;12.372;2023-03-12T05:17:30;0.70;99.80
3418;DHT22;68007;51.312;12.372;2023-03-12T05:19:57;0.70;99.50
3418;DHT22;68007;51.312;12.372;2023-03-12T05:22:25;0.60;99.20
3418;DHT22;68007;51.312;12.372;2023-03-12T05:24:52;0.50;98.80
3418;DHT22;68007;51.312;12.372;2023-03-12T05:27:19;0.60;99.20
3418;DHT22;68007;51.312;12.372;2023-03-12T05:29:47;0.60;99.50
3418;DHT22;68007;51.312;12.372;2023-03-12T05:32:14;0.60;99.50
3418;DHT22;68007;51.312;12.372;2023-03-12T05:34:43;0.60;99.90
3418;DHT22;68007;51.312;12.372;2023-03-12T05:37:11;0.50;99.60
3418;DHT22;68007;51.312;12.372;2023-03-12T05:39:38;0.50;99.30
3418;DHT22;68007;51.312;12.372;2023-03-12T05:42:12;0.50;99.70
3418;DHT22;68007;51.312;12.372;2023-03-12T05:44:39;0.50;99.60
3418;DHT22;68007;51.312;12.372;2023-03-12T05:47:07;0.60;99.90
3418;DHT22;68007;51.312;12.372;2023-03-12T05:49:35;0.50;99.50
3418;DHT22;68007;51.312;12.372;2023-03-12T05:52:05;0.50;99.70
3418;DHT22;68007;51.312;12.372;2023-03-12T05:54:32;0.50;99.70
3418;DHT22;68007;51.312;12.372;2023-03-12T05:57:00;0.50;98.60
3418;DHT22;68007;51.312;12.372;2023-03-12T05:59:28;0.50;99.50
3418;DHT22;68007;51.312;12.372;2023-03-12T06:01:56;0.40;98.50
3418;DHT22;68007;51.312;12.372;2023-03-12T06:04:24;0.50;99.40
3418;DHT22;68007;51.312;12.372;2023-03-12T06:06:51;0.40;97.60
3418;DHT22;68007;51.312;12.372;2023-03-12T06:09:20;0.30;97.60
3418;DHT22;68007;51.312;12.372;2023-03-12T06:11:48;0.40;98.90
3418;DHT22;68007;51.312;12.372;2023-03-12T06:14:15;0.40;99.20
3418;DHT22;68007;51.312;12.372;2023-03-12T06:16:43;0.40;98.60
3418;DHT22;68007;51.312;12.372;2023-03-12T06:19:11;0.30;98.10
3418;DHT22;68007;51.312;12.372;2023-03-12T06:21:41;0.40;98.40
3418;DHT22;68007;51.312;12.372;2023-03-12T06:24:09;0.40;98.10
3418;DHT22;68007;51.312;12.372;2023-03-12T06:26:38;0.30;97.50
3418;DHT22;68007;51.312;12.372;2023-03-12T06:29:06;0.20;96.90
3418;DHT22;68007;51.312;12.372;2023-03-12T06:31:34;0.20;97.40
3418;DHT22;68007;51.312;12.372;2023-03-12T06:34:01;0.30;98.60
3418;DHT22;68007;51.312;12.372;2023-03-12T06:36:29;0.20;98.10
3418;DHT22;68007;51.312;12.372;2023-03-12T06:38:56;0.20;98.00
3418;DHT22;68007;51.312;12.372;2023-03-12T06:41:24;0.20;98.00
3418;DHT22;68007;51.312;12.372;2023-03-12T06:43:53;0.30;98.40
3418;DHT22;68007;51.312;12.372;2023-03-12T06:46:20;0.30;98.40
3418;DHT22;68007;51.312;12.372;2023-03-12T06:48:50;0.40;97.80
3418;DHT22;68007;51.312;12.372;2023-03-12T06:51:17;0.40;98.10
3418;DHT22;68007;51.312;12.372;2023-03-12T06:53:45;0.30;97.70
3418;DHT22;68007;51.312;12.372;2023-03-12T06:56:13;0.30;97.80
3418;DHT22;68007;51.312;12.372;2023-03-12T06:58:41;0.30;98.00
3418;DHT22;68007;51.312;12.372;2023-03-12T07:01:10;0.40;98.80
3418;DHT22;68007;51.312;12.372;2023-03-12T07:03:38;0.40;98.90
3418;DHT22;68007;51.312;12.372;2023-03-12T07:06:12;0.40;98.00
3418;DHT22;68007;51.312;12.372;2023-03-12T07:08:39;0.50;98.20
3418;DHT22;68007;51.312;12.372;2023-03-12T07:11:08;0.60;98.80
3418;DHT22;68007;51.312;12.372;2023-03-12T07:13:35;0.60;97.90
3418;DHT22;68007;51.312;12.372;2023-03-12T07:16:04;0.60;98.30
3418;DHT22;68007;51.312;12.372;2023-03-12T07:18:33;0.60;98.00
3418;DHT22;68007;51.312;12.372;2023-03-12T07:21:00;0.60;98.60
3418;DHT22;68007;51.312;12.372;2023-03-12T07:23:28;0.60;98.20
3418;DHT22;68007;51.312;12.372;2023-03-12T07:25:56;0.70;98.30
3418;DHT22;68007;51.312;12.372;2023-03-12T07:28:23;0.80;99.00
3418;DHT22;68007;51.312;12.372;2023-03-12T07:30:51;0.80;98.80
3418;DHT22;68007;51.312;12.372;2023-03-12T07:33:20;0.90;99.20
3418;DHT22;68007;51.312;12.372;2023-03-12T07:35:49;0.90;99.40
3418;DHT22;68007;51.312;12.372;2023-03-12T07:38:16;0.90;98.20
3418;DHT22;68007;51.312;12.372;2023-03-12T07:40:44;0.90;98.30
3418;DHT22;68007;51.312;12.372;2023-03-12T07:43:11;0.90;98.30
3418;DHT22;68007;51.312;12.372;2023-03-12T07:45:39;1.00;98.00
3418;DHT22;68007;51.312;12.372;2023-03-12T07:48:07;1.00;98.10
3418;DHT22;68007;51.312;12.372;2023-03-12T07:50:35;1.10;98.20
3418;DHT22;68007;51.312;12.372;2023-03-12T07:53:04;1.20;98.30
3418;DHT22;68007;51.312;12.372;2023-03-12T07:55:33;1.20;97.80
3418;DHT22;68007;51.312;12.372;2023-03-12T07:58:00;1.30;97.80
3418;DHT22;68007;51.312;12.372;2023-03-12T08:00:28;1.30;97.10
3418;DHT22;68007;51.312;12.372;2023-03-12T08:02:56;1.40;97.10
3418;DHT22;68007;51.312;12.372;2023-03-12T08:05:24;1.40;97.50
3418;DHT22;68007;51.312;12.372;2023-03-12T08:07:52;1.40;97.40
3418;DHT22;68007;51.312;12.372;2023-03-12T08:10:21;1.60;98.00
3418;DHT22;68007;51.312;12.372;2023-03-12T08:12:49;1.60;97.10
3418;DHT22;68007;51.312;12.372;2023-03-12T08:15:17;1.60;96.80
3418;DHT22;68007;51.312;12.372;2023-03-12T08:17:45;1.70;97.50
3418;DHT22;68007;51.312;12.372;2023-03-12T08:20:13;1.70;97.00
3418;DHT22;68007;51.312;12.372;2023-03-12T08:22:40;1.80;96.60
3418;DHT22;68007;51.312;12.372;2023-03-12T08:25:09;1.90;96.50
3418;DHT22;68007;51.312;12.372;2023-03-12T08:27:37;2.00;95.80
3418;DHT22;68007;51.312;12.372;2023-03-12T08:30:06;2.00;97.00
3418;DHT22;68007;51.312;12.372;2023-03-12T08:32:34;2.10;95.80
3418;DHT22;68007;51.312;12.372;2023-03-12T08:35:01;2.20;96.40
3418;DHT22;68007;51.312;12.372;2023-03-12T08:37:30;2.20;95.80
3418;DHT22;68007;51.312;12.372;2023-03-12T08:39:58;2.20;95.70
3418;DHT22;68007;51.312;12.372;2023-03-12T08:42:25;2.20;95.70
3418;DHT22;68007;51.312;12.372;2023-03-12T08:44:54;2.30;95.20
3418;DHT22;68007;51.312;12.372;2023-03-12T08:47:22;2.30;94.50
3418;DHT22;68007;51.312;12.372;2023-03-12T08:49:49;2.30;94.80
3418;DHT22;68007;51.312;12.372;2023-03-12T08:52:17;2.30;94.50
3418;DHT22;68007;51.312;12.372;2023-03-12T08:54:44;2.30;95.00
3418;DHT22;68007;51.312;12.372;2023-03-12T08:57:12;2.40;94.10
3418;DHT22;68007;51.312;12.372;2023-03-12T08:59:40;2.50;94.20
3418;DHT22;68007;51.312;12.372;2023-03-12T09:02:11;2.60;95.90
3418;DHT22;68007;51.312;12.372;2023-03-12T09:04:38;2.60;95.10
3418;DHT22;68007;51.312;12.372;2023-03-12T09:07:06;2.70;94.00
3418;DHT22;68007;51.312;12.372;2023-03-12T09:09:35;2.70;93.70
3418;DHT22;68007;51.312;12.372;2023-03-12T09:12:03;2.80;93.40
3418;DHT22;68007;51.312;12.372;2023-03-12T09:14:30;2.80;92.90
3418;DHT22;68007;51.312;12.372;2023-03-12T09:16:58;2.80;92.80
3418;DHT22;68007;51.312;12.372;2023-03-12T09:19:27;2.80;93.00
3418;DHT22;68007;51.312;12.372;2023-03-12T09:21:54;2.90;93.50
3418;DHT22;68007;51.312;12.372;2023-03-12T09:24:22;3.00;92.90
3418;DHT22;68007;51.312;12.372;2023-03-12T09:26:49;3.20;93.10
3418;DHT22;68007;51.312;12.372;2023-03-12T09:29:17;3.30;92.80
3418;DHT22;68007;51.312;12.372;2023-03-12T09:31:44;3.30;92.00
3418;DHT22;68007;51.312;12.372;2023-03-12T09:34:12;3.40;92.20
3418;DHT22;68007;51.312;12.372;2023-03-12T09:36:41;3.50;91.90
3418;DHT22;68007;51.312;12.372;2023-03-12T09:39:09;3.60;92.00
3418;DHT22;68007;51.312;12.372;2023-03-12T09:41:38;3.60;90.70
3418;DHT22;68007;51.312;12.372;2023-03-12T09:44:13;3.60;89.60
3418;DHT22;68007;51.312;12.372;2023-03-12T09:46:47;3.70;92.10
3418;DHT22;68007;51.312;12.372;2023-03-12T09:49:18;3.80;91.70
3418;DHT22;68007;51.312;12.372;2023-03-12T09:51:53;3.90;90.90
3418;DHT22;68007;51.312;12.372;2023-03-12T09:54:25;4.00;90.90
3418;DHT22;68007;51.312;12.372;2023-03-12T09:56:56;4.10;91.00
3418;DHT22;68007;51.312;12.372;2023-03-12T09:59:24;4.20;91.00
3418;DHT22;68007;51.312;12.372;2023-03-12T10:01:54;4.30;89.90
3418;DHT22;68007;51.312;12.372;2023-03-12T10:04:37;4.20;85.20
3418;DHT22;68007;51.312;12.372;2023-03-12T10:07:11;4.20;86.60
3418;DHT22;68007;51.312;12.372;2023-03-12T10:10:02;4.20;87.80
3418;DHT22;68007;51.312;12.372;2023-03-12T10:12:41;4.30;88.30
3418;DHT22;68007;51.312;12.372;2023-03-12T10:15:22;4.30;87.60
3418;DHT22;68007;51.312;12.372;2023-03-12T10:18:01;4.30;87.80
3418;DHT22;68007;51.312;12.372;2023-03-12T10:20:45;4.40;87.00
3418;DHT22;68007;51.312;12.372;2023-03-12T10:23:24;4.40;86.80
3418;DHT22;68007;51.312;12.372;2023-03-12T10:25:58;4.30;85.90
3418;DHT22;68007;51.312;12.372;2023-03-12T10:28:31;4.40;90.60
3418;DHT22;68007;51.312;12.372;2023-03-12T10:31:03;4.60;91.90
3418;DHT22;68007;51.312;12.372;2023-03-12T10:33:40;4.60;90.20
3418;DHT22;68007;51.312;12.372;2023-03-12T10:36:15;4.70;85.40
3418;DHT22;68007;51.312;12.372;2023-03-12T10:38:45;4.50;87.80
3418;DHT22;68007;51.312;12.372;2023-03-12T10:41:16;4.60;86.40
3418;DHT22;68007;51.312;12.372;2023-03-12T10:43:44;4.60;86.50
3418;DHT22;68007;51.312;12.372;2023-03-12T10:49:27;4.70;88.20
3418;DHT22;68007;51.312;12.372;2023-03-12T10:51:58;4.80;87.70
3418;DHT22;68007;51.312;12.372;2023-03-12T10:54:35;4.90;88.60
3418;DHT22;68007;51.312;12.372;2023-03-12T10:57:04;4.90;87.10
3418;DHT22;68007;51.312;12.372;2023-03-12T10:59:33;4.80;83.20
3418;DHT22;68007;51.312;12.372;2023-03-12T11:02:02;4.90;84.70
3418;DHT22;68007;51.312;12.372;2023-03-12T11:04:30;4.90;84.50
3418;DHT22;68007;51.312;12.372;2023-03-12T11:07:05;5.00;84.80
3418;DHT22;68007;51.312;12.372;2023-03-12T11:09:35;5.00;83.40
3418;DHT22;68007;51.312;12.372;2023-03-12T11:12:22;5.10;82.20
3418;DHT22;68007;51.312;12.372;2023-03-12T11:14:50;5.10;83.60
3418;DHT22;68007;51.312;12.372;2023-03-12T11:17:22;5.20;83.50
3418;DHT22;68007;51.312;12.372;2023-03-12T11:19:50;5.40;86.10
3418;DHT22;68007;51.312;12.372;2023-03-12T11:22:29;5.40;81.60
3418;DHT22;68007;51.312;12.372;2023-03-12T11:25:00;5.50;80.90
3418;DHT22;68007;51.312;12.372;2023-03-12T11:27:37;5.60;85.10
3418;DHT22;68007;51.312;12.372;2023-03-12T11:30:10;5.60;81.90
3418;DHT22;68007;51.312;12.372;2023-03-12T11:32:41;5.50;81.50
3418;DHT22;68007;51.312;12.372;2023-03-12T11:35:10;5.60;82.00
3418;DHT22;68007;51.312;12.372;2023-03-12T11:37:48;5.60;80.30
3418;DHT22;68007;51.312;12.372;2023-03-12T11:40:46;5.60;80.30
3418;DHT22;68007;51.312;12.372;2023-03-12T11:43:28;5.50;82.00
3418;DHT22;68007;51.312;12.372;2023-03-12T11:46:10;5.60;83.30
3418;DHT22;68007;51.312;12.372;2023-03-12T11:48:45;5.70;81.30
3418;DHT22;68007;51.312;12.372;2023-03-12T11:51:24;5.80;80.40
3418;DHT22;68007;51.312;12.372;2023-03-12T11:54:13;5.90;82.50
3418;DHT22;68007;51.312;12.372;2023-03-12T11:56:48;5.90;79.70
3418;DHT22;68007;51.312;12.372;2023-03-12T11:59:28;6.00;81.40
3418;DHT22;68007;51.312;12.372;2023-03-12T12:02:10;6.00;81.10
3418;DHT22;68007;51.312;12.372;2023-03-12T12:04:52;6.10;80.20
3418;DHT22;68007;51.312;12.372;2023-03-12T12:07:31;6.20;80.10
3418;DHT22;68007;51.312;12.372;2023-03-12T12:10:04;6.20;76.90
3418;DHT22;68007;51.312;12.372;2023-03-12T12:12:50;6.10;76.80
3418;DHT22;68007;51.312;12.372;2023-03-12T12:15:27;6.20;76.50
3418;DHT22;68007;51.312;12.372;2023-03-12T12:18:04;6.30;75.60
3418;DHT22;68007;51.312;12.372;2023-03-12T12:20:39;6.40;75.30
3418;DHT22;68007;51.312;12.372;2023-03-12T12:23:17;6.30;75.20
3418;DHT22;68007;51.312;12.372;2023-03-12T12:25:55;6.20;76.70
3418;DHT22;68007;51.312;12.372;2023-03-12T12:31:28;6.30;77.30
3418;DHT22;68007;51.312;12.372;2023-03-12T12:34:18;6.30;76.80
3418;DHT22;68007;51.312;12.372;2023-03-12T12:36:51;6.40;78.60
3418;DHT22;68007;51.312;12.372;2023-03-12T12:39:29;6.40;75.80
3418;DHT22;68007;51.312;12.372;2023-03-12T12:42:01;6.40;77.40
3418;DHT22;68007;51.312;12.372;2023-03-12T12:44:34;6.50;78.30
3418;DHT22;68007;51.312;12.372;2023-03-12T12:47:04;6.40;75.20
3418;DHT22;68007;51.312;12.372;2023-03-12T12:49:41;6.40;76.30
3418;DHT22;68007;51.312;12.372;2023-03-12T12:52:15;6.50;76.80
3418;DHT22;68007;51.312;12.372;2023-03-12T12:54:51;6.50;78.20
3418;DHT22;68007;51.312;12.372;2023-03-12T12:57:23;6.50;73.90
3418;DHT22;68007;51.312;12.372;2023-03-12T13:00:07;6.50;77.20
3418;DHT22;68007;51.312;12.372;2023-03-12T13:02:41;6.50;76.50
3418;DHT22;68007;51.312;12.372;2023-03-12T13:05:25;6.50;73.40
3418;DHT22;68007;51.312;12.372;2023-03-12T13:07:53;6.50;77.90
3418;DHT22;68007;51.312;12.372;2023-03-12T13:10:39;6.50;74.30
3418;DHT22;68007;51.312;12.372;2023-03-12T13:13:12;6.50;75.10
3418;DHT22;68007;51.312;12.372;2023-03-12T13:15:45;6.50;77.30
3418;DHT22;68007;51.312;12.372;2023-03-12T13:18:21;6.50;76.30
3418;DHT22;68007;51.312;12.372;2023-03-12T13:21:10;6.40;78.70
3418;DHT22;68007;51.312;12.372;2023-03-12T13:23:45;6.20;81.20
3418;DHT22;68007;51.312;12.372;2023-03-12T13:26:20;6.20;83.50
3418;DHT22;68007;51.312;12.372;2023-03-12T13:28:58;5.90;88.00
3418;DHT22;68007;51.312;12.372;2023-03-12T13:31:35;5.90;90.20
3418;DHT22;68007;51.312;12.372;2023-03-12T13:34:30;5.80;92.00
3418;DHT22;68007;51.312;12.372;2023-03-12T13:36:59;5.90;93.30
3418;DHT22;68007;51.312;12.372;2023-03-12T13:39:30;5.70;94.00
3418;DHT22;68007;51.312;12.372;2023-03-12T13:41:59;5.50;94.50
3418;DHT22;68007;51.312;12.372;2023-03-12T13:44:37;5.40;95.00
3418;DHT22;68007;51.312;12.372;2023-03-12T13:47:20;5.40;94.80
3418;DHT22;68007;51.312;12.372;2023-03-12T13:49:53;5.30;95.10
3418;DHT22;68007;51.312;12.372;2023-03-12T13:52:25;5.30;94.90
3418;DHT22;68007;51.312;12.372;2023-03-12T13:54:59;5.20;94.40
3418;DHT22;68007;51.312;12.372;2023-03-12T13:57:35;5.20;94.80
3418;DHT22;68007;51.312;12.372;2023-03-12T14:00:13;5.20;94.20
3418;DHT22;68007;51.312;12.372;2023-03-12T14:02:47;5.30;94.20
3418;DHT22;68007;51.312;12.372;2023-03-12T14:05:17;5.30;94.30
3418;DHT22;68007;51.312;12.372;2023-03-12T14:07:59;5.30;93.90
3418;DHT22;68007;51.312;12.372;2023-03-12T14:10:38;5.30;94.20
3418;DHT22;68007;51.312;12.372;2023-03-12T14:13:26;5.40;94.40
3418;DHT22;68007;51.312;12.372;2023-03-12T14:16:03;5.40;93.90
3418;DHT22;68007;51.312;12.372;2023-03-12T14:18:34;5.40;93.80
3418;DHT22;68007;51.312;12.372;2023-03-12T14:21:08;5.40;94.00
3418;DHT22;68007;51.312;12.372;2023-03-12T14:23:38;5.50;94.00
3418;DHT22;68007;51.312;12.372;2023-03-12T14:26:11;5.60;93.90
3418;DHT22;68007;51.312;12.372;2023-03-12T14:28:44;5.60;94.00
3418;DHT22;68007;51.312;12.372;2023-03-12T14:31:13;5.50;94.30
3418;DHT22;68007;51.312;12.372;2023-03-12T14:33:52;5.60;94.50
3418;DHT22;68007;51.312;12.372;2023-03-12T14:36:24;5.50;95.00
3418;DHT22;68007;51.312;12.372;2023-03-12T14:38:59;5.50;95.40
3418;DHT22;68007;51.312;12.372;2023-03-12T14:41:35;5.60;95.40
3418;DHT22;68007;51.312;12.372;2023-03-12T14:44:20;5.60;95.90
3418;DHT22;68007;51.312;12.372;2023-03-12T14:46:55;5.70;95.60
3418;DHT22;68007;51.312;12.372;2023-03-12T14:49:24;5.80;95.80
3418;DHT22;68007;51.312;12.372;2023-03-12T14:51:53;5.80;95.30
3418;DHT22;68007;51.312;12.372;2023-03-12T14:54:24;5.80;95.40
3418;DHT22;68007;51.312;12.372;2023-03-12T14:56:52;5.80;95.70
3418;DHT22;68007;51.312;12.372;2023-03-12T14:59:22;5.90;95.90
3418;DHT22;68007;51.312;12.372;2023-03-12T15:01:50;5.90;95.60
3418;DHT22;68007;51.312;12.372;2023-03-12T15:04:20;5.90;95.40
3418;DHT22;68007;51.312;12.372;2023-03-12T15:06:51;5.80;95.60
3418;DHT22;68007;51.312;12.372;2023-03-12T15:09:22;5.90;95.70
3418;DHT22;68007;51.312;12.372;2023-03-12T15:11:54;6.00;95.60
3418;DHT22;68007;51.312;12.372;2023-03-12T15:14:23;6.00;95.50
3418;DHT22;68007;51.312;12.372;2023-03-12T15:16:52;6.10;96.30
3418;DHT22;68007;51.312;12.372;2023-03-12T15:19:24;6.20;95.80
3418;DHT22;68007;51.312;12.372;2023-03-12T15:21:53;6.30;96.40
3418;DHT22;68007;51.312;12.372;2023-03-12T15:24:22;6.30;95.40
3418;DHT22;68007;51.312;12.372;2023-03-12T15:26:50;6.30;95.90
3418;DHT22;68007;51.312;12.372;2023-03-12T15:29:22;6.30;95.30
3418;DHT22;68007;51.312;12.372;2023-03-12T15:31:53;6.30;95.50
3418;DHT22;68007;51.312;12.372;2023-03-12T15:34:31;6.20;95.60
3418;DHT22;68007;51.312;12.372;2023-03-12T15:37:02;6.10;96.00
3418;DHT22;68007;51.312;12.372;2023-03-12T15:39:32;6.00;96.40
3418;DHT22;68007;51.312;12.372;2023-03-12T15:42:00;6.10;96.60
3418;DHT22;68007;51.312;12.372;2023-03-12T15:44:33;6.20;96.40
3418;DHT22;68007;51.312;12.372;2023-03-12T15:47:05;6.20;96.40
3418;DHT22;68007;51.312;12.372;2023-03-12T15:49:37;6.20;96.50
3418;DHT22;68007;51.312;12.372;2023-03-12T15:52:24;6.10;96.80
3418;DHT22;68007;51.312;12.372;2023-03-12T15:55:01;6.20;96.80
3418;DHT22;68007;51.312;12.372;2023-03-12T15:57:30;6.20;96.80
3418;DHT22;68007;51.312;12.372;2023-03-12T16:00:21;6.20;96.90
3418;DHT22;68007;51.312;12.372;2023-03-12T16:02:52;6.20;96.80
3418;DHT22;68007;51.312;12.372;2023-03-12T16:05:21;6.20;97.10
3418;DHT22;68007;51.312;12.372;2023-03-12T16:07:51;6.30;97.30
3418;DHT22;68007;51.312;12.372;2023-03-12T16:10:21;6.40;97.00
3418;DHT22;68007;51.312;12.372;2023-03-12T16:12:49;6.30;97.10